EBBR/BRU METAR and TAF weather

Enter ICAO airport designator
Station Type Date Time Source
EBBR METAR 2018/07/16 23:50 UTC NOAA

EBBR 162350Z 26004KT CAVOK 19/13 Q1014 NOSIG


Station Type Date Time Source
EBBR Decoded METAR 2018/07/16 23:50 UTC NOAA

Bruxelles National, Belgium (EBBR) 50-54N 004-32E 58M
Jul 16, 2018 - 07:50 PM EDT / 2018.07.16 2350 UTC
Wind: from the W (260 degrees) at 5 MPH (4 KT):0
Visibility: greater than 7 mile(s):0
Temperature: 66 F (19 C)
Dew Point: 55 F (13 C)
Relative Humidity: 68%
Pressure (altimeter): 29.94 in. Hg (1014 hPa)
ob: EBBR 162350Z 26004KT CAVOK 19/13 Q1014 NOSIG
cycle: 0

Station Type Date Time Source
EBBR TAF 2018/07/16 18:27 UTC NOAA

TAF TAF EBBR 161700Z 1618/1724 26006KT CAVOK PROB30
TEMPO 1618/1624 VRB15G25KT -TSRA


Example: see airport list